New Braunfels, TX (78132)

03:44 PM CST die 16o January, anno 2017 (GMT -0600)
River Road nr 1st Crossing | | Change Station

Elev 672 ft 29.75 °N, 98.15 °W | Updated 4 minutes ago

Aequaliter Nubila
Aequaliter Nubila
66.7 °F
Feels Like 66.7 °F
N
6.0
Ventus Variabilis Ventus from Magis Aquilo quam Zephyrus
Gusts 9.0 mph

Hodie
High -- | Low -- °F
--% Chance of Precip.
Yesterday
High -- | Low -- °F
Precip. -- in
Pressio 29.91 in
Visibilitas 10.0 milia passuum
Clouds Plerumque Nubila 2100 ft
Frigus in quo Ros apparet 58 °F
Umor 74%
Rainfall 0.78 in
Snow Depth Not available.
7:28 AM 5:56 PM
Waning Gibbous, 78% visible
METAR KBAZ 162051Z 03009KT 10SM BKN021 20/14 A2993 RMK AO2 SLP128 60000 T02000139 56025
Pressio 29.91 in
Visibilitas 10.0 milia passuum
Clouds Plerumque Nubila 2100 ft
Frigus in quo Ros apparet 58 °F
Umor 74%
Rainfall 0.78 in
Snow Depth Not available.
7:28 AM 5:56 PM
Waning Gibbous, 78% visible
METAR KBAZ 162051Z 03009KT 10SM BKN021 20/14 A2993 RMK AO2 SLP128 60000 T02000139 56025

Get Your Daily Forecast Email!

Thanks for signing up!

Be on the lookout for a verification email in your inbox.

You'll start receiving the daily forecast at 8 AM.

×

10-Day Weather Forecast

Almanac

Astronomy

Jan. 16, 2017 Rise Set
Actual Time
Civil Twilight
Nautical Twilight
Astronomical Twilight
Moon
Length Of Visible Light
Length of Day
Tomorrow will be .
, % of the Moon is Illuminated

Today's Extremes

State Highs State Lows

Community

WunderPhotos

Upload Photos

1,962,540 photos uploaded!

WunderBlog® & News

Nearby

Air Quality

  Air Quality AQ Index Pollutant
Not available.

Snow Depth

Station Depth Elevation

Earthquake Activity

City Distance Mag. Time & Date
Minimum magnitude displayed is 2.5.

Coastal Water Temperatures

Locus Calor

Stations

Nearby Weather Stations

Station Location Temp Frigus Venti Frigus in quo Ros apparet Umor Ventus Precip. Elev Renovata Type
                   

Watches & Warnings

There are currently no watches in effect.